Time;durP1;ratioP1;P1;durP2;ratioP2;P2;SDS_P1;SDS_P2;PMS_P1;PMS_P2;Temp;Humidity;BMP_temperature;BMP_pressure;BME280_temperature;BME280_humidity;BME280_pressure;Samples;Min_cycle;Max_cycle;Signal;HPM_P1;HPM_P2
2022/03/07 05:00:34;;;;;;;4.13;3.73;;;-3.50;96.30;;;;;;5873469;23;20498;-80
2022/03/07 05:02:59;;;;;;;4.40;3.80;;;-3.50;96.30;;;;;;4958959;28;20755;-77
2022/03/07 05:05:25;;;;;;;4.70;4.10;;;-3.60;96.30;;;;;;4975808;28;20171;-79
2022/03/07 05:07:50;;;;;;;5.70;4.27;;;-3.50;96.30;;;;;;4958829;28;20693;-78
2022/03/07 05:10:20;;;;;;;5.63;4.17;;;-3.50;96.30;;;;;;4956887;28;20218;-78
2022/03/07 05:12:45;;;;;;;4.80;4.20;;;-3.50;96.30;;;;;;4938809;29;20186;-78
2022/03/07 05:15:11;;;;;;;5.90;4.30;;;-3.50;96.30;;;;;;4939886;29;20422;-75
2022/03/07 05:17:53;;;;;;;8.10;3.83;;;-3.50;96.30;;;;;;4955754;29;20683;-77
2022/03/07 05:45:47;;;;;;;7.10;4.40;;;-3.50;96.30;;;;;;4951839;29;20434;-76
2022/03/07 06:04:54;;;;;;;7.57;4.03;;;-3.20;96.30;;;;;;5552956;23;20571;-75
2022/03/07 08:24:12;;;;;;;6.23;3.43;;;1.30;96.30;;;;;;4978222;28;20469;-77
2022/03/07 08:26:39;;;;;;;3.37;3.00;;;1.50;96.30;;;;;;4979872;28;20828;-78
2022/03/07 08:29:04;;;;;;;3.83;3.13;;;1.10;96.30;;;;;;4979160;28;20178;-78
2022/03/07 08:31:30;;;;;;;4.10;3.07;;;0.70;96.30;;;;;;4960530;28;20807;-77
2022/03/07 08:33:55;;;;;;;2.83;2.43;;;0.80;96.30;;;;;;4978303;28;20178;-77
2022/03/07 08:36:21;;;;;;;6.43;2.77;;;0.70;96.30;;;;;;4958535;28;20187;-76
2022/03/07 08:38:47;;;;;;;2.83;2.50;;;0.60;96.30;;;;;;4959934;28;20186;-79
2022/03/07 08:41:12;;;;;;;4.57;3.20;;;0.50;96.30;;;;;;4977648;28;20202;-78
2022/03/07 08:43:39;;;;;;;7.30;2.67;;;0.50;96.30;;;;;;4975404;28;20194;-78
2022/03/07 08:46:05;;;;;;;6.10;3.07;;;0.90;96.30;;;;;;4959885;28;20178;-78
2022/03/07 08:48:30;;;;;;;4.70;3.60;;;1.30;96.30;;;;;;4953403;29;20430;-78
2022/03/07 08:50:56;;;;;;;3.70;3.27;;;1.50;96.30;;;;;;4958228;29;20215;-79
2022/03/07 08:53:21;;;;;;;3.33;3.03;;;1.60;96.30;;;;;;4954550;28;20191;-78
2022/03/07 08:55:47;;;;;;;4.53;3.30;;;1.50;96.30;;;;;;4931982;28;20194;-78
2022/03/07 08:58:13;;;;;;;10.23;3.30;;;1.50;96.30;;;;;;4937642;28;20198;-77
2022/03/07 09:00:38;;;;;;;6.03;3.10;;;1.70;96.30;;;;;;4933684;28;20317;-78
2022/03/07 09:03:04;;;;;;;4.30;3.50;;;1.80;96.30;;;;;;4956290;28;20209;-78
2022/03/07 09:05:30;;;;;;;3.47;2.90;;;1.90;96.30;;;;;;4939544;29;20215;-78
2022/03/07 09:07:56;;;;;;;4.77;3.37;;;2.00;96.30;;;;;;4939944;28;20183;-78
2022/03/07 09:10:21;;;;;;;5.57;2.93;;;2.10;96.30;;;;;;4958409;28;20484;-78
2022/03/07 09:12:48;;;;;;;4.27;2.93;;;2.50;96.30;;;;;;4954228;28;20236;-79
2022/03/07 09:15:14;;;;;;;5.27;3.10;;;2.80;96.30;;;;;;4959403;28;20170;-79
2022/03/07 09:17:41;;;;;;;3.37;2.90;;;3.10;96.30;;;;;;4958669;28;20508;-79
2022/03/07 09:20:08;;;;;;;4.07;2.83;;;3.10;96.30;;;;;;4956640;28;20442;-77
2022/03/07 09:22:34;;;;;;;5.57;2.93;;;2.70;96.30;;;;;;4900643;28;1002073;-78
2022/03/07 09:25:00;;;;;;;8.80;2.43;;;2.70;96.30;;;;;;4946370;29;20274;-79
2022/03/07 09:27:26;;;;;;;6.30;3.20;;;2.60;96.30;;;;;;4956886;28;20490;-78
2022/03/07 09:29:52;;;;;;;4.93;3.00;;;2.20;96.30;;;;;;4957308;29;20206;-78
2022/03/07 09:32:17;;;;;;;4.07;2.70;;;1.80;96.30;;;;;;4939531;29;20222;-79
2022/03/07 09:34:43;;;;;;;4.40;2.80;;;1.70;96.30;;;;;;4940359;29;20221;-79
2022/03/07 09:37:10;;;;;;;5.80;2.73;;;2.00;96.30;;;;;;4941954;29;20565;-79
2022/03/07 09:39:35;;;;;;;3.43;2.60;;;2.00;96.30;;;;;;4957427;29;20654;-79
2022/03/07 09:42:01;;;;;;;2.73;2.40;;;2.20;96.30;;;;;;4956938;29;20426;-79
2022/03/07 09:44:28;;;;;;;3.30;2.27;;;2.70;96.30;;;;;;4951430;29;20692;-79
2022/03/07 09:46:56;;;;;;;4.33;3.00;;;2.80;96.30;;;;;;4965970;28;20189;-79
2022/03/07 09:49:22;;;;;;;3.67;2.87;;;2.90;96.30;;;;;;4971071;28;20469;-79
2022/03/07 09:51:48;;;;;;;4.93;3.03;;;2.80;96.30;;;;;;4971492;28;20498;-79
2022/03/07 09:54:13;;;;;;;3.40;3.10;;;3.10;96.30;;;;;;4948754;28;20237;-79
2022/03/07 09:56:39;;;;;;;4.80;2.90;;;3.30;96.30;;;;;;4948808;28;20191;-79
2022/03/07 09:59:06;;;;;;;6.37;2.70;;;3.70;96.30;;;;;;4960884;28;20178;-78
2022/03/07 10:01:32;;;;;;;3.50;2.40;;;4.10;96.30;;;;;;4970132;28;20355;-79
2022/03/07 10:04:13;;;;;;;3.87;3.00;;;4.10;96.30;;;;;;4964823;28;20413;-79
2022/03/07 10:06:48;;;;;;;4.07;2.77;;;4.40;96.30;;;;;;4978534;28;20417;-79
2022/03/07 10:09:20;;;;;;;4.97;3.20;;;4.70;96.30;;;;;;4962063;28;20595;-79
2022/03/07 10:11:54;;;;;;;4.30;2.80;;;4.60;96.30;;;;;;4941540;28;20961;-77
2022/03/07 10:14:30;;;;;;;5.70;2.67;;;5.10;96.30;;;;;;4938704;28;20513;-78
2022/03/07 10:16:56;;;;;;;4.17;2.77;;;6.20;96.30;;;;;;4938578;29;20446;-79
2022/03/07 10:19:21;;;;;;;4.20;3.00;;;5.10;92.90;;;;;;4941037;29;20556;-78
2022/03/07 10:21:50;;;;;;;3.87;2.93;;;4.30;96.30;;;;;;4960453;28;20240;-79
2022/03/07 10:24:16;;;;;;;3.23;2.73;;;4.10;96.30;;;;;;4942142;29;20229;-78
2022/03/07 10:26:43;;;;;;;3.30;2.33;;;3.50;96.30;;;;;;4959191;28;20430;-79
2022/03/07 10:29:09;;;;;;;3.43;2.50;;;3.10;96.30;;;;;;4959062;28;20422;-79
2022/03/07 10:31:37;;;;;;;4.47;3.40;;;2.70;96.30;;;;;;4956842;29;20442;-79
2022/03/07 10:34:06;;;;;;;5.80;3.03;;;2.70;96.30;;;;;;4943559;28;20854;-78
2022/03/07 10:36:37;;;;;;;5.97;2.93;;;3.10;96.30;;;;;;4959838;28;20422;-78
2022/03/07 10:39:05;;;;;;;4.37;2.30;;;4.00;96.30;;;;;;4959299;29;20517;-78
2022/03/07 10:41:33;;;;;;;5.30;2.80;;;4.90;96.30;;;;;;4962310;29;20815;-79
2022/03/07 10:43:59;;;;;;;3.30;2.53;;;5.30;96.30;;;;;;4940885;29;20433;-79
2022/03/07 10:46:26;;;;;;;4.67;2.67;;;5.60;96.30;;;;;;4939475;29;20996;-78
2022/03/07 10:48:53;;;;;;;5.13;2.90;;;5.50;94.70;;;;;;4954605;28;20666;-78
2022/03/07 10:51:20;;;;;;;5.23;2.60;;;4.70;96.30;;;;;;4976106;28;20445;-78
2022/03/07 10:53:46;;;;;;;4.70;2.50;;;4.10;96.30;;;;;;4976518;28;20925;-79
2022/03/07 10:56:14;;;;;;;4.20;2.57;;;4.10;96.30;;;;;;4959059;28;20447;-79
2022/03/07 10:58:54;;;;;;;4.47;2.80;;;4.50;96.30;;;;;;4954590;28;20217;-76
2022/03/07 11:01:31;;;;;;;5.83;2.93;;;5.20;96.30;;;;;;4954125;29;20430;-76
2022/03/07 11:03:58;;;;;;;2.40;2.10;;;5.40;96.30;;;;;;4954499;28;20409;-77
2022/03/07 11:06:26;;;;;;;3.27;2.43;;;4.90;96.30;;;;;;4956980;28;20422;-78
2022/03/07 11:08:52;;;;;;;8.17;2.40;;;5.40;96.30;;;;;;4974477;28;20409;-78
2022/03/07 11:11:20;;;;;;;2.70;2.30;;;5.20;96.30;;;;;;4967305;28;20489;-76
2022/03/07 11:13:51;;;;;;;5.10;3.03;;;5.90;96.30;;;;;;4931151;28;20431;-77
2022/03/07 11:16:17;;;;;;;3.87;2.40;;;6.50;96.30;;;;;;4955387;28;20517;-79
2022/03/07 11:18:51;;;;;;;8.00;2.23;;;6.40;91.70;;;;;;4957189;28;20920;-79
2022/03/07 11:21:17;;;;;;;2.20;2.00;;;6.00;94.60;;;;;;4955409;29;20426;-79
2022/03/07 11:23:43;;;;;;;2.23;2.03;;;5.80;95.60;;;;;;4971734;28;20522;-79
2022/03/07 11:26:09;;;;;;;3.97;2.40;;;5.10;95.60;;;;;;4975295;28;20417;-78
2022/03/07 11:28:35;;;;;;;8.60;3.17;;;4.70;96.30;;;;;;4952333;28;20170;-78
2022/03/07 11:31:00;;;;;;;4.77;2.60;;;4.70;96.30;;;;;;4965369;28;20500;-79
2022/03/07 11:33:33;;;;;;;4.50;2.33;;;5.20;96.30;;;;;;4966780;28;20632;-79
2022/03/07 11:36:02;;;;;;;3.10;2.03;;;6.00;94.30;;;;;;4974914;28;20177;-79
2022/03/07 11:38:31;;;;;;;3.03;1.80;;;6.40;93.50;;;;;;4952134;29;20424;-78
2022/03/07 11:41:06;;;;;;;3.27;1.80;;;5.30;91.70;;;;;;4962385;28;20493;-78
2022/03/07 11:43:34;;;;;;;6.00;2.07;;;4.80;95.20;;;;;;4970594;28;20403;-78
2022/03/07 11:46:05;;;;;;;3.43;2.07;;;4.90;96.30;;;;;;4952642;28;20570;-78
2022/03/07 11:48:44;;;;;;;4.73;2.10;;;4.80;96.30;;;;;;4955327;28;20425;-77
2022/03/07 11:51:26;;;;;;;4.13;2.27;;;4.50;96.30;;;;;;4956367;28;20554;-78
2022/03/07 11:53:53;;;;;;;5.40;1.80;;;4.50;96.30;;;;;;4981136;28;20405;-78
2022/03/07 11:56:23;;;;;;;2.50;1.90;;;4.50;96.30;;;;;;4976571;28;20449;-77
2022/03/07 11:58:53;;;;;;;2.67;2.10;;;4.20;96.30;;;;;;4956381;28;20445;-77
2022/03/07 12:01:20;;;;;;;4.40;2.13;;;4.10;96.30;;;;;;4974976;28;20457;-78
2022/03/07 12:03:47;;;;;;;6.63;2.10;;;4.20;96.30;;;;;;4960037;28;20418;-78
2022/03/07 12:06:14;;;;;;;2.10;1.70;;;3.90;96.30;;;;;;4974220;28;20832;-78
2022/03/07 12:08:57;;;;;;;4.23;2.00;;;4.00;96.30;;;;;;4958446;28;20430;-79
2022/03/07 12:11:29;;;;;;;9.10;2.47;;;4.70;96.30;;;;;;4967989;28;20565;-78
2022/03/07 12:14:02;;;;;;;4.83;2.57;;;5.80;96.30;;;;;;4977473;28;20892;-78
2022/03/07 12:16:39;;;;;;;6.30;2.00;;;6.20;96.30;;;;;;4946303;28;20434;-77
2022/03/07 12:19:22;;;;;;;5.40;2.63;;;6.10;96.30;;;;;;4948323;28;21120;-78
2022/03/07 12:21:49;;;;;;;2.23;1.70;;;5.30;95.80;;;;;;4959258;28;20429;-78
2022/03/07 12:24:19;;;;;;;2.40;1.97;;;4.40;96.30;;;;;;4948150;28;20943;-79
2022/03/07 12:26:54;;;;;;;3.90;2.43;;;4.00;96.30;;;;;;4950487;29;20421;-78
2022/03/07 12:29:25;;;;;;;3.43;2.27;;;3.80;96.30;;;;;;4945518;29;20873;-78
2022/03/07 12:32:06;;;;;;;5.37;2.20;;;3.90;96.30;;;;;;4941810;29;20447;-78
2022/03/07 12:34:34;;;;;;;3.50;2.10;;;4.30;96.30;;;;;;4957936;29;20494;-78
2022/03/07 12:37:01;;;;;;;3.23;2.30;;;4.80;96.30;;;;;;4940028;29;20422;-78
2022/03/07 12:39:28;;;;;;;2.30;1.90;;;4.80;96.30;;;;;;4968134;28;20421;-78
2022/03/07 12:42:01;;;;;;;3.00;2.00;;;4.60;96.30;;;;;;4971557;28;20458;-78
2022/03/07 12:44:27;;;;;;;3.50;2.40;;;4.90;96.30;;;;;;4962646;28;20790;-78
2022/03/07 12:46:53;;;;;;;2.50;2.00;;;4.70;96.30;;;;;;4957136;29;20432;-78
2022/03/07 12:49:19;;;;;;;2.03;1.63;;;4.10;96.30;;;;;;4962225;28;20206;-78
2022/03/07 12:51:44;;;;;;;3.93;2.47;;;3.80;96.30;;;;;;4958425;28;20221;-78
2022/03/07 12:54:10;;;;;;;1.37;1.27;;;3.70;96.30;;;;;;4957356;29;20513;-78
2022/03/07 12:56:38;;;;;;;6.03;2.40;;;3.60;96.30;;;;;;4958200;28;20187;-77
2022/03/07 12:59:05;;;;;;;2.57;2.07;;;3.80;96.30;;;;;;4965549;28;20591;-78
2022/03/07 13:01:34;;;;;;;1.90;1.80;;;4.10;96.30;;;;;;4965632;28;20538;-78
2022/03/07 13:03:59;;;;;;;2.47;2.27;;;4.40;96.30;;;;;;4970756;28;20508;-78
2022/03/07 13:06:27;;;;;;;4.10;3.70;;;4.80;96.30;;;;;;4957592;28;20522;-77
2022/03/07 13:08:57;;;;;;;3.80;2.30;;;4.70;96.30;;;;;;4957914;28;20189;-77
2022/03/07 13:11:35;;;;;;;2.20;1.70;;;4.20;96.30;;;;;;4958050;28;20453;-76
2022/03/07 13:14:02;;;;;;;4.83;2.00;;;3.90;96.30;;;;;;4975343;28;20432;-78
2022/03/07 13:16:30;;;;;;;3.43;1.90;;;3.70;96.30;;;;;;4975315;28;20418;-77
2022/03/07 13:19:05;;;;;;;5.07;2.00;;;3.70;96.30;;;;;;4966858;28;20497;-77
2022/03/07 13:21:36;;;;;;;2.97;2.23;;;3.50;96.30;;;;;;4951520;28;20450;-77
2022/03/07 13:24:03;;;;;;;2.80;2.13;;;3.30;96.30;;;;;;4963347;28;20469;-77
2022/03/07 13:26:29;;;;;;;1.67;1.57;;;3.40;96.30;;;;;;4975161;28;20414;-76
2022/03/07 13:29:26;;;;;;;3.53;1.50;;;3.50;96.30;;;;;;4953079;28;20430;-77
2022/03/07 13:31:55;;;;;;;3.00;1.73;;;3.70;96.30;;;;;;4932987;28;20236;-78
2022/03/07 13:34:21;;;;;;;3.13;1.93;;;4.20;96.30;;;;;;4957061;28;20981;-77
2022/03/07 13:36:54;;;;;;;1.67;1.53;;;4.40;96.30;;;;;;4969338;28;20430;-77
2022/03/07 13:39:23;;;;;;;4.07;1.90;;;4.60;96.30;;;;;;4967946;28;20414;-77
2022/03/07 13:41:59;;;;;;;2.90;2.17;;;4.70;96.30;;;;;;4957130;28;20493;-77
2022/03/07 13:44:25;;;;;;;2.33;1.67;;;4.70;96.30;;;;;;4960618;28;20398;-77
2022/03/07 13:46:52;;;;;;;2.87;1.67;;;4.60;96.30;;;;;;4948470;28;20414;-78
2022/03/07 13:49:18;;;;;;;2.20;2.00;;;4.70;96.30;;;;;;4957487;28;20616;-78
2022/03/07 13:51:45;;;;;;;2.60;2.07;;;4.30;96.30;;;;;;4944543;29;20525;-79
2022/03/07 13:54:10;;;;;;;2.73;1.87;;;4.10;96.30;;;;;;4944733;28;20182;-78
2022/03/07 13:56:36;;;;;;;2.60;1.77;;;4.00;96.30;;;;;;4962607;28;20418;-78
2022/03/07 13:59:23;;;;;;;2.80;2.20;;;3.60;96.30;;;;;;4945819;28;20171;-76
2022/03/07 14:01:48;;;;;;;3.67;2.07;;;3.30;96.30;;;;;;4965021;28;20213;-77
2022/03/07 14:04:16;;;;;;;1.93;1.80;;;3.30;96.30;;;;;;4947865;28;20424;-77
2022/03/07 14:06:44;;;;;;;3.90;1.87;;;3.30;96.30;;;;;;4952178;28;20269;-76
2022/03/07 14:09:14;;;;;;;2.20;2.00;;;3.30;96.30;;;;;;4970715;28;20422;-78
2022/03/07 14:11:42;;;;;;;3.70;2.20;;;3.10;96.30;;;;;;4968164;28;20446;-78
2022/03/07 14:14:19;;;;;;;3.17;2.40;;;2.90;96.30;;;;;;4950307;29;20407;-77
2022/03/07 14:16:46;;;;;;;2.87;1.90;;;2.90;96.30;;;;;;4950799;28;20468;-78
2022/03/07 14:19:11;;;;;;;3.40;2.07;;;3.00;96.30;;;;;;4958265;28;20441;-77
2022/03/07 14:21:37;;;;;;;3.10;2.10;;;3.10;96.30;;;;;;4964544;28;20514;-78
2022/03/07 14:24:04;;;;;;;5.23;2.20;;;3.10;96.30;;;;;;4963086;28;20186;-78
2022/03/07 14:26:31;;;;;;;2.60;2.10;;;3.00;96.30;;;;;;4959323;28;20767;-78
2022/03/07 14:29:03;;;;;;;2.60;2.17;;;2.90;96.30;;;;;;4950232;28;20418;-78
2022/03/07 14:31:29;;;;;;;5.27;2.30;;;2.70;96.30;;;;;;4961158;28;20429;-76
2022/03/07 14:33:55;;;;;;;3.27;2.53;;;2.60;96.30;;;;;;4966411;28;20421;-77
2022/03/07 14:36:20;;;;;;;4.17;2.67;;;2.80;96.30;;;;;;4975857;28;20519;-77
2022/03/07 14:38:46;;;;;;;2.70;2.40;;;3.40;96.30;;;;;;4973090;28;20171;-77
2022/03/07 14:41:12;;;;;;;4.70;2.07;;;4.10;96.30;;;;;;4968729;28;20214;-78
2022/03/07 14:43:38;;;;;;;4.70;2.33;;;3.80;96.30;;;;;;4949976;28;20195;-75
2022/03/07 14:46:06;;;;;;;3.10;2.50;;;3.80;96.30;;;;;;4941397;28;20426;-78
2022/03/07 14:48:32;;;;;;;4.70;2.43;;;3.50;96.30;;;;;;4954167;28;20473;-76
2022/03/07 14:50:58;;;;;;;3.13;2.20;;;3.00;96.30;;;;;;4961036;28;20546;-77
2022/03/07 14:53:23;;;;;;;3.83;2.20;;;3.00;96.30;;;;;;4964722;28;20502;-77
2022/03/07 14:55:49;;;;;;;4.73;2.83;;;3.00;96.30;;;;;;4965746;28;20262;-78
2022/03/07 14:58:14;;;;;;;2.87;2.30;;;3.20;96.30;;;;;;4960578;28;20182;-78
2022/03/07 15:00:40;;;;;;;2.40;2.10;;;3.70;96.30;;;;;;4971445;28;20202;-76
2022/03/07 15:03:07;;;;;;;4.70;2.57;;;4.00;96.30;;;;;;4956244;28;20645;-76
2022/03/07 15:05:33;;;;;;;3.47;2.20;;;4.10;96.30;;;;;;4973394;28;20170;-77
2022/03/07 15:07:59;;;;;;;3.80;2.30;;;3.90;96.30;;;;;;4973091;28;20476;-76
2022/03/07 15:13:00;;;;;;;3.93;2.53;;;3.50;96.30;;;;;;6000917;23;20192;-77
2022/03/07 15:15:26;;;;;;;6.10;2.73;;;3.50;96.30;;;;;;4977521;28;20530;-77
2022/03/07 15:17:53;;;;;;;5.23;2.20;;;3.30;96.30;;;;;;4976630;28;20907;-78
2022/03/07 15:20:18;;;;;;;4.40;1.90;;;3.00;96.30;;;;;;4975865;28;20224;-77
2022/03/07 15:22:44;;;;;;;3.47;2.60;;;2.90;96.30;;;;;;4953421;29;20920;-76
2022/03/07 15:25:10;;;;;;;4.37;2.80;;;3.00;96.30;;;;;;4936902;29;20556;-76
2022/03/07 15:27:36;;;;;;;3.10;2.37;;;3.20;96.30;;;;;;4936389;29;20469;-77
2022/03/07 15:30:04;;;;;;;4.90;3.07;;;3.30;96.30;;;;;;4937654;29;20236;-76
2022/03/07 15:32:29;;;;;;;4.73;3.70;;;3.20;96.30;;;;;;4956267;29;20631;-76
2022/03/07 15:34:56;;;;;;;4.00;2.60;;;3.10;96.30;;;;;;4940672;29;20406;-76
2022/03/07 15:37:21;;;;;;;3.10;2.37;;;3.00;96.30;;;;;;4957698;29;20174;-76
2022/03/07 15:39:47;;;;;;;2.73;2.50;;;3.00;96.30;;;;;;4957479;29;20422;-76
2022/03/07 15:42:12;;;;;;;4.47;2.93;;;2.90;96.30;;;;;;4940148;29;20229;-77
2022/03/07 15:44:39;;;;;;;4.70;3.07;;;2.80;96.30;;;;;;4940127;29;20178;-76
2022/03/07 15:47:05;;;;;;;4.07;2.40;;;2.60;96.30;;;;;;4939977;29;20179;-77
2022/03/07 15:49:32;;;;;;;3.83;3.03;;;2.40;96.30;;;;;;4957088;29;20468;-76
2022/03/07 15:51:57;;;;;;;3.40;2.53;;;2.20;96.30;;;;;;4939879;29;20446;-76
2022/03/07 15:54:24;;;;;;;3.80;2.50;;;2.10;96.30;;;;;;4957132;29;20809;-76
2022/03/07 15:56:50;;;;;;;4.20;2.77;;;2.00;96.30;;;;;;4957249;29;20712;-76
2022/03/07 15:59:20;;;;;;;2.70;2.50;;;2.00;96.30;;;;;;4957014;29;20449;-76
2022/03/07 16:01:47;;;;;;;3.13;2.83;;;2.10;96.30;;;;;;4957133;28;20450;-76
2022/03/07 16:04:13;;;;;;;11.33;2.90;;;2.20;96.30;;;;;;4957174;29;20449;-76
2022/03/07 16:06:39;;;;;;;5.87;2.93;;;2.30;96.30;;;;;;4939826;29;20859;-76
2022/03/07 16:09:06;;;;;;;6.30;2.90;;;2.40;96.30;;;;;;4956748;29;20442;-77
2022/03/07 16:11:32;;;;;;;8.60;3.50;;;2.20;96.30;;;;;;4956826;28;20517;-76
2022/03/07 16:14:00;;;;;;;6.73;2.90;;;2.10;96.30;;;;;;4956842;29;20925;-76
2022/03/07 16:16:33;;;;;;;3.53;2.87;;;2.10;96.30;;;;;;4939522;29;20322;-76
2022/03/07 16:18:59;;;;;;;2.90;2.13;;;2.10;96.30;;;;;;4939491;29;20451;-76
2022/03/07 16:21:25;;;;;;;4.33;2.67;;;2.10;96.30;;;;;;4956812;28;20434;-77
2022/03/07 16:23:51;;;;;;;3.57;2.77;;;2.00;96.30;;;;;;4956802;29;20895;-76
2022/03/07 16:26:16;;;;;;;3.60;3.00;;;1.80;96.30;;;;;;4939382;29;20453;-76
2022/03/07 16:28:42;;;;;;;5.43;2.30;;;1.80;96.30;;;;;;4956609;29;20501;-76
2022/03/07 16:31:08;;;;;;;4.13;3.10;;;1.70;96.30;;;;;;4955916;29;20703;-76
2022/03/07 16:33:33;;;;;;;2.60;2.40;;;1.60;96.30;;;;;;4956809;29;20191;-76
2022/03/07 16:35:59;;;;;;;3.40;2.43;;;1.50;96.30;;;;;;4956734;29;20175;-76
2022/03/07 16:38:25;;;;;;;3.47;2.87;;;1.40;96.30;;;;;;4939155;29;20179;-76
2022/03/07 16:40:52;;;;;;;6.50;3.23;;;1.30;96.30;;;;;;4939893;28;20545;-78
2022/03/07 16:43:18;;;;;;;3.37;2.50;;;1.20;96.30;;;;;;4939106;29;20431;-76
2022/03/07 16:45:44;;;;;;;3.70;2.70;;;1.20;96.30;;;;;;4941087;29;20417;-75
2022/03/07 16:48:10;;;;;;;4.10;2.80;;;1.10;96.30;;;;;;4936965;29;20428;-75
2022/03/07 16:50:37;;;;;;;5.90;2.97;;;1.10;96.30;;;;;;4937022;29;20314;-75
2022/03/07 16:53:04;;;;;;;4.93;3.50;;;1.10;96.30;;;;;;4919974;29;20830;-75
2022/03/07 16:55:30;;;;;;;4.80;2.63;;;1.20;96.30;;;;;;4938566;29;20525;-76
2022/03/07 16:57:56;;;;;;;7.87;3.13;;;1.10;96.30;;;;;;4955657;29;20506;-75
2022/03/07 17:00:22;;;;;;;6.97;3.53;;;1.00;96.30;;;;;;4938607;29;20992;-76
2022/03/07 17:02:48;;;;;;;4.30;3.03;;;0.80;96.30;;;;;;4956110;29;20183;-76
2022/03/07 17:05:14;;;;;;;5.10;3.57;;;0.70;96.30;;;;;;4956274;29;20501;-76
2022/03/07 17:07:40;;;;;;;9.00;2.80;;;0.50;96.30;;;;;;4955571;29;20532;-76
2022/03/07 17:10:08;;;;;;;3.90;3.10;;;0.40;96.30;;;;;;4938675;29;20217;-76
2022/03/07 17:12:34;;;;;;;6.33;3.07;;;0.30;96.30;;;;;;4956042;29;20545;-76
2022/03/07 17:15:00;;;;;;;4.03;2.90;;;0.10;96.30;;;;;;4955837;29;21043;-75
2022/03/07 17:17:26;;;;;;;4.20;2.60;;;0.10;96.30;;;;;;4955534;29;20179;-75
2022/03/07 17:19:52;;;;;;;4.57;2.93;;;0.10;96.30;;;;;;4938442;29;20776;-76
2022/03/07 17:22:18;;;;;;;6.43;2.90;;;0.10;96.30;;;;;;4955710;29;20669;-75
2022/03/07 17:24:44;;;;;;;3.17;2.83;;;0.10;96.30;;;;;;4936871;29;20187;-74
2022/03/07 17:27:09;;;;;;;4.17;3.00;;;0.10;96.30;;;;;;4936352;29;20515;-73
2022/03/07 17:29:35;;;;;;;3.63;3.03;;;0.10;96.30;;;;;;4918012;29;20228;-74
2022/03/07 17:32:02;;;;;;;3.63;3.20;;;0.00;96.30;;;;;;4936303;29;20202;-74
2022/03/07 17:34:28;;;;;;;6.20;3.80;;;0.10;96.30;;;;;;4937870;29;20765;-75
2022/03/07 17:36:54;;;;;;;5.37;3.30;;;0.10;96.30;;;;;;4938164;29;20425;-75
2022/03/07 17:39:20;;;;;;;4.40;3.70;;;0.30;96.30;;;;;;4937674;29;20513;-76
2022/03/07 17:41:47;;;;;;;6.53;3.70;;;0.40;96.30;;;;;;4935262;29;20289;-75
2022/03/07 17:44:13;;;;;;;5.60;3.30;;;0.50;96.30;;;;;;4955430;29;20426;-77
2022/03/07 17:46:40;;;;;;;15.03;3.30;;;0.50;96.30;;;;;;4955354;29;20426;-76
2022/03/07 17:49:06;;;;;;;5.60;3.20;;;0.50;96.30;;;;;;4923979;29;20960;-74
2022/03/07 17:51:31;;;;;;;3.77;3.37;;;0.50;96.30;;;;;;4918669;29;20994;-74
2022/03/07 17:53:57;;;;;;;4.77;3.67;;;0.50;96.30;;;;;;4941202;29;20457;-74
2022/03/07 17:56:22;;;;;;;6.23;3.90;;;0.50;96.30;;;;;;4954377;29;20194;-78
2022/03/07 17:58:48;;;;;;;5.03;3.40;;;0.50;96.30;;;;;;4954409;29;20308;-78
2022/03/07 18:01:14;;;;;;;7.50;3.27;;;0.50;96.30;;;;;;4930504;29;20206;-77
2022/03/07 18:03:39;;;;;;;4.93;3.63;;;0.50;96.30;;;;;;4931115;29;20266;-78
2022/03/07 18:06:05;;;;;;;4.77;3.80;;;0.50;96.30;;;;;;4930455;29;20675;-78
2022/03/07 18:08:30;;;;;;;6.37;3.50;;;0.50;96.30;;;;;;4948076;29;20682;-77
2022/03/07 18:10:56;;;;;;;4.70;3.67;;;0.40;96.30;;;;;;4933059;29;20704;-77
2022/03/07 18:13:21;;;;;;;3.63;3.13;;;0.40;96.30;;;;;;4951961;28;20218;-76
2022/03/07 18:15:48;;;;;;;8.93;3.57;;;0.40;96.30;;;;;;4941085;29;20222;-77
2022/03/07 18:18:14;;;;;;;6.27;4.07;;;0.30;96.30;;;;;;4935846;29;20179;-77
2022/03/07 18:20:40;;;;;;;6.90;3.83;;;0.30;96.30;;;;;;4954762;29;20435;-75
2022/03/07 18:23:05;;;;;;;8.20;3.70;;;0.40;96.30;;;;;;4955966;29;20190;-79
2022/03/07 18:25:31;;;;;;;5.70;5.00;;;0.50;96.30;;;;;;4955744;29;20376;-78
2022/03/07 18:27:56;;;;;;;5.70;4.10;;;0.60;96.30;;;;;;4923450;29;20206;-77
2022/03/07 18:30:22;;;;;;;4.77;3.03;;;0.60;96.30;;;;;;4935496;29;20258;-76
2022/03/07 18:32:48;;;;;;;3.80;3.47;;;0.60;96.30;;;;;;4918511;29;20187;-78
2022/03/07 18:35:14;;;;;;;6.40;3.37;;;0.50;96.30;;;;;;4935645;29;20183;-77
2022/03/07 18:37:39;;;;;;;5.77;3.50;;;0.50;96.30;;;;;;4918174;29;20207;-77
2022/03/07 18:40:06;;;;;;;4.67;3.70;;;0.60;96.30;;;;;;4935260;29;20514;-76
2022/03/07 18:42:31;;;;;;;5.70;3.90;;;0.50;96.30;;;;;;4918273;29;20290;-78
2022/03/07 18:44:58;;;;;;;4.40;3.20;;;0.50;96.30;;;;;;4918157;29;20864;-77
2022/03/07 18:47:23;;;;;;;9.00;4.50;;;0.50;96.30;;;;;;4944162;29;20721;-76
2022/03/07 18:49:50;;;;;;;4.00;3.40;;;0.60;96.30;;;;;;4961796;29;20492;-76
2022/03/07 18:52:16;;;;;;;6.17;4.37;;;0.60;96.30;;;;;;4939944;29;20208;-77
2022/03/07 18:54:42;;;;;;;9.77;4.57;;;0.60;96.30;;;;;;4941803;29;20443;-77
2022/03/07 18:57:08;;;;;;;5.90;4.30;;;0.70;96.30;;;;;;4938382;29;20180;-75
2022/03/07 18:59:35;;;;;;;9.63;5.27;;;0.70;96.30;;;;;;4934471;29;20419;-75
2022/03/07 19:02:01;;;;;;;6.70;4.90;;;0.70;96.30;;;;;;4934774;29;20274;-75
2022/03/07 19:04:28;;;;;;;7.40;4.57;;;0.70;96.30;;;;;;4951610;28;20430;-75
2022/03/07 19:06:54;;;;;;;6.07;4.63;;;0.60;96.30;;;;;;4953992;29;20422;-74
2022/03/07 19:09:21;;;;;;;5.73;3.97;;;0.60;96.30;;;;;;4953385;29;20433;-75
2022/03/07 19:11:48;;;;;;;7.20;4.80;;;0.50;96.30;;;;;;4953999;28;20435;-74
2022/03/07 19:14:13;;;;;;;4.77;4.03;;;0.50;96.30;;;;;;4953880;29;20434;-75
2022/03/07 19:16:39;;;;;;;4.57;3.67;;;0.40;96.30;;;;;;4953084;29;20419;-74
2022/03/07 19:19:06;;;;;;;6.07;4.57;;;0.30;96.30;;;;;;4953164;29;20198;-75
2022/03/07 19:21:33;;;;;;;6.50;4.33;;;0.20;96.30;;;;;;4953779;28;20570;-74
2022/03/07 19:23:59;;;;;;;5.13;4.10;;;0.10;96.30;;;;;;4953793;29;20429;-75
2022/03/07 19:26:25;;;;;;;4.43;3.90;;;0.00;96.30;;;;;;4936362;29;20811;-74
2022/03/07 19:28:50;;;;;;;6.10;4.73;;;-0.10;96.30;;;;;;4923546;29;20176;-74
2022/03/07 19:31:16;;;;;;;5.20;4.43;;;-0.30;96.30;;;;;;4934789;29;21064;-76
2022/03/07 19:33:42;;;;;;;8.47;4.10;;;-0.30;96.30;;;;;;4934597;29;20171;-74
2022/03/07 19:36:07;;;;;;;8.03;5.00;;;-0.40;96.30;;;;;;4915443;29;20168;-75
2022/03/07 19:38:33;;;;;;;5.97;4.20;;;-0.60;96.30;;;;;;4945912;29;20167;-75
2022/03/07 19:41:00;;;;;;;5.87;4.40;;;-0.60;96.30;;;;;;4941228;29;20207;-78
2022/03/07 19:43:26;;;;;;;9.00;4.57;;;-0.60;96.30;;;;;;4949757;29;20187;-74
2022/03/07 19:45:51;;;;;;;7.97;4.40;;;-0.60;96.30;;;;;;4951558;29;20416;-75
2022/03/07 19:48:17;;;;;;;4.60;3.97;;;-0.70;96.30;;;;;;4936349;29;20187;-74
2022/03/07 19:50:43;;;;;;;7.03;4.60;;;-0.60;96.30;;;;;;4936126;29;20301;-75
2022/03/07 19:53:10;;;;;;;6.33;4.13;;;-0.50;96.30;;;;;;4953603;29;20171;-76
2022/03/07 19:55:36;;;;;;;4.67;3.60;;;-0.50;96.30;;;;;;4953706;29;20226;-74
2022/03/07 19:58:01;;;;;;;4.40;3.80;;;-0.60;96.30;;;;;;4936158;29;20800;-75
2022/03/07 20:00:27;;;;;;;4.50;3.53;;;-0.60;96.30;;;;;;4953509;29;20183;-75
2022/03/07 20:02:52;;;;;;;4.83;3.27;;;-0.70;96.30;;;;;;4929772;29;20183;-74
2022/03/07 20:05:18;;;;;;;5.57;4.03;;;-0.70;96.30;;;;;;4949880;29;20191;-74
2022/03/07 20:07:45;;;;;;;14.63;4.63;;;-0.80;96.30;;;;;;4952563;29;21010;-74
2022/03/07 20:10:11;;;;;;;5.73;4.10;;;-0.80;96.30;;;;;;4936220;29;20252;-74
2022/03/07 20:12:37;;;;;;;5.33;3.67;;;-0.80;96.30;;;;;;4953477;28;20434;-74
2022/03/07 20:15:05;;;;;;;6.00;4.20;;;-0.80;96.30;;;;;;4936154;29;20449;-74
2022/03/07 20:17:31;;;;;;;5.10;4.33;;;-0.80;96.30;;;;;;4956530;28;20421;-75
2022/03/07 20:19:56;;;;;;;4.43;3.60;;;-1.00;96.30;;;;;;4947170;29;20835;-75
2022/03/07 20:22:22;;;;;;;8.93;4.27;;;-1.00;96.30;;;;;;4937118;29;20286;-75
2022/03/07 20:24:47;;;;;;;23.10;12.70;;;-0.90;96.30;;;;;;4920708;29;20206;-74
2022/03/07 20:27:13;;;;;;;16.50;10.17;;;-0.90;96.30;;;;;;4937712;29;20175;-75
2022/03/07 20:29:39;;;;;;;18.40;10.63;;;-0.90;96.30;;;;;;4937435;29;20187;-75
2022/03/07 20:32:04;;;;;;;18.30;8.97;;;-1.00;96.30;;;;;;4937566;29;20200;-75
2022/03/07 20:34:30;;;;;;;15.73;8.23;;;-0.90;96.30;;;;;;4920578;29;20183;-75
2022/03/07 20:36:57;;;;;;;12.57;7.80;;;-1.00;96.30;;;;;;4920265;29;20518;-74
2022/03/07 20:39:23;;;;;;;10.37;6.73;;;-1.10;96.30;;;;;;4920198;29;20266;-75
2022/03/07 20:41:49;;;;;;;10.97;7.00;;;-1.30;96.30;;;;;;4935780;29;20435;-74
2022/03/07 20:44:14;;;;;;;14.00;6.37;;;-1.50;96.30;;;;;;4955955;29;20477;-74
2022/03/07 20:46:40;;;;;;;9.67;4.80;;;-1.60;96.30;;;;;;4956521;29;20183;-74
2022/03/07 20:49:05;;;;;;;6.97;4.23;;;-1.70;96.30;;;;;;4939078;29;20585;-75
2022/03/07 20:51:31;;;;;;;7.00;5.00;;;-1.60;96.30;;;;;;4939097;29;20215;-75
2022/03/07 20:53:57;;;;;;;7.90;4.57;;;-1.30;96.30;;;;;;4956392;29;20179;-76
2022/03/07 20:56:23;;;;;;;5.97;4.20;;;-1.10;96.30;;;;;;4956415;29;20558;-75